sensor_id;sensor_type;location;lat;lon;timestamp;temperature;humidity
3986;DHT22;2007;48.750;9.278;2024-03-08T00:00:15;14.40;54.40
3986;DHT22;2007;48.750;9.278;2024-03-08T00:02:46;14.40;54.40
3986;DHT22;2007;48.750;9.278;2024-03-08T00:05:17;14.40;54.40
3986;DHT22;2007;48.750;9.278;2024-03-08T00:07:46;14.40;54.40
3986;DHT22;2007;48.750;9.278;2024-03-08T00:10:14;14.40;54.40
3986;DHT22;2007;48.750;9.278;2024-03-08T00:12:44;14.40;54.40
3986;DHT22;2007;48.750;9.278;2024-03-08T00:15:16;14.40;54.40
3986;DHT22;2007;48.750;9.278;2024-03-08T00:17:46;14.40;54.40
3986;DHT22;2007;48.750;9.278;2024-03-08T00:20:15;14.40;54.40
3986;DHT22;2007;48.750;9.278;2024-03-08T00:22:46;14.40;54.40
3986;DHT22;2007;48.750;9.278;2024-03-08T00:25:14;14.40;54.40
3986;DHT22;2007;48.750;9.278;2024-03-08T00:27:43;14.40;54.40
3986;DHT22;2007;48.750;9.278;2024-03-08T00:30:11;14.40;54.40
3986;DHT22;2007;48.750;9.278;2024-03-08T00:32:42;14.40;54.40
3986;DHT22;2007;48.750;9.278;2024-03-08T00:35:10;14.40;54.40
3986;DHT22;2007;48.750;9.278;2024-03-08T00:37:39;14.40;54.40
3986;DHT22;2007;48.750;9.278;2024-03-08T00:40:09;14.40;54.40
3986;DHT22;2007;48.750;9.278;2024-03-08T00:42:37;14.40;54.40
3986;DHT22;2007;48.750;9.278;2024-03-08T00:45:07;14.40;54.40
3986;DHT22;2007;48.750;9.278;2024-03-08T00:47:37;14.40;54.40
3986;DHT22;2007;48.750;9.278;2024-03-08T00:50:07;14.40;54.40
3986;DHT22;2007;48.750;9.278;2024-03-08T00:52:36;14.40;54.40
3986;DHT22;2007;48.750;9.278;2024-03-08T00:55:04;14.40;54.40
3986;DHT22;2007;48.750;9.278;2024-03-08T00:57:32;14.30;54.30
3986;DHT22;2007;48.750;9.278;2024-03-08T01:00:03;14.40;54.40
3986;DHT22;2007;48.750;9.278;2024-03-08T01:02:32;14.40;54.40
3986;DHT22;2007;48.750;9.278;2024-03-08T01:05:02;14.30;54.30
3986;DHT22;2007;48.750;9.278;2024-03-08T01:07:35;14.30;54.20
3986;DHT22;2007;48.750;9.278;2024-03-08T01:10:04;14.40;54.30
3986;DHT22;2007;48.750;9.278;2024-03-08T01:12:36;14.30;54.30
3986;DHT22;2007;48.750;9.278;2024-03-08T01:15:05;14.40;54.40
3986;DHT22;2007;48.750;9.278;2024-03-08T01:17:34;14.30;54.20
3986;DHT22;2007;48.750;9.278;2024-03-08T01:20:02;14.30;54.30
3986;DHT22;2007;48.750;9.278;2024-03-08T01:22:30;14.40;54.30
3986;DHT22;2007;48.750;9.278;2024-03-08T01:25:00;14.30;54.20
3986;DHT22;2007;48.750;9.278;2024-03-08T01:27:28;14.30;54.20
3986;DHT22;2007;48.750;9.278;2024-03-08T01:29:56;14.30;54.20
3986;DHT22;2007;48.750;9.278;2024-03-08T01:32:25;14.30;54.20
3986;DHT22;2007;48.750;9.278;2024-03-08T01:34:53;14.30;54.20
3986;DHT22;2007;48.750;9.278;2024-03-08T01:37:21;14.30;54.30
3986;DHT22;2007;48.750;9.278;2024-03-08T01:39:48;14.30;54.30
3986;DHT22;2007;48.750;9.278;2024-03-08T01:42:18;14.30;54.20
3986;DHT22;2007;48.750;9.278;2024-03-08T01:44:46;14.30;54.20
3986;DHT22;2007;48.750;9.278;2024-03-08T01:47:14;14.30;54.40
3986;DHT22;2007;48.750;9.278;2024-03-08T01:49:42;14.30;54.30
3986;DHT22;2007;48.750;9.278;2024-03-08T01:52:10;14.30;54.20
3986;DHT22;2007;48.750;9.278;2024-03-08T01:54:39;14.30;54.20
3986;DHT22;2007;48.750;9.278;2024-03-08T01:57:07;14.30;54.20
3986;DHT22;2007;48.750;9.278;2024-03-08T01:59:37;14.30;54.20
3986;DHT22;2007;48.750;9.278;2024-03-08T02:02:06;14.30;54.20
3986;DHT22;2007;48.750;9.278;2024-03-08T02:04:35;14.30;54.20
3986;DHT22;2007;48.750;9.278;2024-03-08T02:07:05;14.30;54.20
3986;DHT22;2007;48.750;9.278;2024-03-08T02:09:37;14.30;54.20
3986;DHT22;2007;48.750;9.278;2024-03-08T02:12:05;14.30;54.20
3986;DHT22;2007;48.750;9.278;2024-03-08T02:14:33;14.30;54.20
3986;DHT22;2007;48.750;9.278;2024-03-08T02:17:02;14.30;54.20
3986;DHT22;2007;48.750;9.278;2024-03-08T02:19:31;14.30;54.20
3986;DHT22;2007;48.750;9.278;2024-03-08T02:22:03;14.30;54.20
3986;DHT22;2007;48.750;9.278;2024-03-08T02:24:32;14.30;54.20
3986;DHT22;2007;48.750;9.278;2024-03-08T02:27:00;14.30;54.20
3986;DHT22;2007;48.750;9.278;2024-03-08T02:29:28;14.30;54.20
3986;DHT22;2007;48.750;9.278;2024-03-08T02:31:57;14.30;54.20
3986;DHT22;2007;48.750;9.278;2024-03-08T02:34:25;14.30;54.20
3986;DHT22;2007;48.750;9.278;2024-03-08T02:36:53;14.30;54.20
3986;DHT22;2007;48.750;9.278;2024-03-08T02:39:24;14.30;54.20
3986;DHT22;2007;48.750;9.278;2024-03-08T02:41:52;14.30;54.20
3986;DHT22;2007;48.750;9.278;2024-03-08T02:44:20;14.30;54.20
3986;DHT22;2007;48.750;9.278;2024-03-08T02:46:49;14.30;54.20
3986;DHT22;2007;48.750;9.278;2024-03-08T02:49:17;14.30;54.80
3986;DHT22;2007;48.750;9.278;2024-03-08T02:51:45;14.30;54.20
3986;DHT22;2007;48.750;9.278;2024-03-08T02:54:13;14.30;54.20
3986;DHT22;2007;48.750;9.278;2024-03-08T02:56:42;14.30;54.20
3986;DHT22;2007;48.750;9.278;2024-03-08T02:59:10;14.30;54.10
3986;DHT22;2007;48.750;9.278;2024-03-08T03:01:39;14.30;54.10
3986;DHT22;2007;48.750;9.278;2024-03-08T03:04:07;14.30;54.10
3986;DHT22;2007;48.750;9.278;2024-03-08T03:06:35;14.30;54.10
3986;DHT22;2007;48.750;9.278;2024-03-08T03:09:03;14.30;54.10
3986;DHT22;2007;48.750;9.278;2024-03-08T03:11:33;14.30;54.10
3986;DHT22;2007;48.750;9.278;2024-03-08T03:14:02;14.30;54.20
3986;DHT22;2007;48.750;9.278;2024-03-08T03:16:31;14.30;54.10
3986;DHT22;2007;48.750;9.278;2024-03-08T03:18:59;14.30;54.10
3986;DHT22;2007;48.750;9.278;2024-03-08T03:21:28;14.30;54.10
3986;DHT22;2007;48.750;9.278;2024-03-08T03:23:58;14.30;54.10
3986;DHT22;2007;48.750;9.278;2024-03-08T03:26:27;14.30;54.10
3986;DHT22;2007;48.750;9.278;2024-03-08T03:28:54;14.30;54.10
3986;DHT22;2007;48.750;9.278;2024-03-08T03:31:25;14.30;54.10
3986;DHT22;2007;48.750;9.278;2024-03-08T03:33:53;14.20;54.00
3986;DHT22;2007;48.750;9.278;2024-03-08T03:36:21;14.30;54.10
3986;DHT22;2007;48.750;9.278;2024-03-08T03:38:51;14.20;54.00
3986;DHT22;2007;48.750;9.278;2024-03-08T03:41:31;14.30;54.10
3986;DHT22;2007;48.750;9.278;2024-03-08T03:43:59;14.20;54.00
3986;DHT22;2007;48.750;9.278;2024-03-08T03:46:28;14.20;54.00
3986;DHT22;2007;48.750;9.278;2024-03-08T03:48:56;14.20;54.00
3986;DHT22;2007;48.750;9.278;2024-03-08T03:51:24;14.20;54.00
3986;DHT22;2007;48.750;9.278;2024-03-08T03:53:52;14.20;54.00
3986;DHT22;2007;48.750;9.278;2024-03-08T03:56:25;14.20;54.00
3986;DHT22;2007;48.750;9.278;2024-03-08T03:58:53;14.30;54.10
3986;DHT22;2007;48.750;9.278;2024-03-08T04:01:21;14.20;54.00
3986;DHT22;2007;48.750;9.278;2024-03-08T04:03:50;14.20;54.00
3986;DHT22;2007;48.750;9.278;2024-03-08T04:06:18;14.20;54.00
3986;DHT22;2007;48.750;9.278;2024-03-08T04:08:46;14.20;54.00
3986;DHT22;2007;48.750;9.278;2024-03-08T04:11:14;14.20;54.00
3986;DHT22;2007;48.750;9.278;2024-03-08T04:13:43;14.20;54.00
3986;DHT22;2007;48.750;9.278;2024-03-08T04:16:11;14.20;54.00
3986;DHT22;2007;48.750;9.278;2024-03-08T04:18:39;14.20;54.00
3986;DHT22;2007;48.750;9.278;2024-03-08T04:21:09;14.30;54.10
3986;DHT22;2007;48.750;9.278;2024-03-08T04:23:38;14.20;54.00
3986;DHT22;2007;48.750;9.278;2024-03-08T04:26:06;14.20;54.00
3986;DHT22;2007;48.750;9.278;2024-03-08T04:28:35;14.20;54.00
3986;DHT22;2007;48.750;9.278;2024-03-08T04:31:06;14.20;54.00
3986;DHT22;2007;48.750;9.278;2024-03-08T04:33:34;14.20;54.00
3986;DHT22;2007;48.750;9.278;2024-03-08T04:36:02;14.20;54.00
3986;DHT22;2007;48.750;9.278;2024-03-08T04:38:33;14.20;54.00
3986;DHT22;2007;48.750;9.278;2024-03-08T04:41:01;14.20;54.00
3986;DHT22;2007;48.750;9.278;2024-03-08T04:43:29;14.20;54.00
3986;DHT22;2007;48.750;9.278;2024-03-08T04:45:57;14.20;54.00
3986;DHT22;2007;48.750;9.278;2024-03-08T04:48:25;14.20;54.00
3986;DHT22;2007;48.750;9.278;2024-03-08T04:50:53;14.20;54.00
3986;DHT22;2007;48.750;9.278;2024-03-08T04:53:22;14.20;54.00
3986;DHT22;2007;48.750;9.278;2024-03-08T04:55:51;14.20;54.00
3986;DHT22;2007;48.750;9.278;2024-03-08T04:58:19;14.20;54.00
3986;DHT22;2007;48.750;9.278;2024-03-08T05:00:47;14.20;54.00
3986;DHT22;2007;48.750;9.278;2024-03-08T05:03:16;14.20;54.00
3986;DHT22;2007;48.750;9.278;2024-03-08T05:05:44;14.20;54.00
3986;DHT22;2007;48.750;9.278;2024-03-08T05:08:12;14.20;54.00
3986;DHT22;2007;48.750;9.278;2024-03-08T05:10:40;14.20;54.00
3986;DHT22;2007;48.750;9.278;2024-03-08T05:13:09;14.20;54.00
3986;DHT22;2007;48.750;9.278;2024-03-08T05:15:39;14.20;54.00
3986;DHT22;2007;48.750;9.278;2024-03-08T05:18:07;14.20;54.00
3986;DHT22;2007;48.750;9.278;2024-03-08T05:20:38;14.20;54.00
3986;DHT22;2007;48.750;9.278;2024-03-08T05:23:07;14.20;54.00
3986;DHT22;2007;48.750;9.278;2024-03-08T05:25:35;14.20;54.00
3986;DHT22;2007;48.750;9.278;2024-03-08T05:28:04;14.20;54.00
3986;DHT22;2007;48.750;9.278;2024-03-08T05:30:33;14.20;54.00
3986;DHT22;2007;48.750;9.278;2024-03-08T05:33:03;14.20;54.00
3986;DHT22;2007;48.750;9.278;2024-03-08T05:35:31;14.20;54.00
3986;DHT22;2007;48.750;9.278;2024-03-08T05:37:59;14.20;54.00
3986;DHT22;2007;48.750;9.278;2024-03-08T05:40:27;14.20;54.00
3986;DHT22;2007;48.750;9.278;2024-03-08T05:42:58;14.20;54.00
3986;DHT22;2007;48.750;9.278;2024-03-08T05:45:26;14.10;53.90
3986;DHT22;2007;48.750;9.278;2024-03-08T05:47:56;14.10;53.90
3986;DHT22;2007;48.750;9.278;2024-03-08T05:50:24;14.10;53.90
3986;DHT22;2007;48.750;9.278;2024-03-08T05:52:54;14.10;53.90
3986;DHT22;2007;48.750;9.278;2024-03-08T05:55:21;14.10;53.90
3986;DHT22;2007;48.750;9.278;2024-03-08T05:57:51;14.10;53.90
3986;DHT22;2007;48.750;9.278;2024-03-08T06:00:20;14.10;53.90
3986;DHT22;2007;48.750;9.278;2024-03-08T06:02:49;14.10;53.90
3986;DHT22;2007;48.750;9.278;2024-03-08T06:05:19;14.20;54.00
3986;DHT22;2007;48.750;9.278;2024-03-08T06:07:50;14.10;53.90
3986;DHT22;2007;48.750;9.278;2024-03-08T06:10:20;14.10;53.90
3986;DHT22;2007;48.750;9.278;2024-03-08T06:12:48;14.10;53.90
3986;DHT22;2007;48.750;9.278;2024-03-08T06:15:16;14.10;53.90
3986;DHT22;2007;48.750;9.278;2024-03-08T06:17:44;14.10;53.90
3986;DHT22;2007;48.750;9.278;2024-03-08T06:20:12;14.10;53.90
3986;DHT22;2007;48.750;9.278;2024-03-08T06:22:42;14.10;53.90
3986;DHT22;2007;48.750;9.278;2024-03-08T06:25:11;14.10;53.90
3986;DHT22;2007;48.750;9.278;2024-03-08T06:27:41;14.10;53.90
3986;DHT22;2007;48.750;9.278;2024-03-08T06:30:10;14.10;53.90
3986;DHT22;2007;48.750;9.278;2024-03-08T06:32:39;14.10;53.90
3986;DHT22;2007;48.750;9.278;2024-03-08T06:35:09;14.10;53.80
3986;DHT22;2007;48.750;9.278;2024-03-08T06:37:38;14.10;53.80
3986;DHT22;2007;48.750;9.278;2024-03-08T06:40:08;14.10;53.90
3986;DHT22;2007;48.750;9.278;2024-03-08T06:42:40;14.10;53.90
3986;DHT22;2007;48.750;9.278;2024-03-08T06:45:09;14.10;53.90
3986;DHT22;2007;48.750;9.278;2024-03-08T06:47:39;14.10;53.80
3986;DHT22;2007;48.750;9.278;2024-03-08T06:50:09;14.10;53.80
3986;DHT22;2007;48.750;9.278;2024-03-08T06:52:38;14.10;53.80
3986;DHT22;2007;48.750;9.278;2024-03-08T06:55:08;14.10;53.80
3986;DHT22;2007;48.750;9.278;2024-03-08T06:57:39;14.10;53.90
3986;DHT22;2007;48.750;9.278;2024-03-08T07:00:08;14.10;53.90
3986;DHT22;2007;48.750;9.278;2024-03-08T07:02:38;14.10;53.80
3986;DHT22;2007;48.750;9.278;2024-03-08T07:05:07;14.10;53.80
3986;DHT22;2007;48.750;9.278;2024-03-08T07:07:37;14.10;53.90
3986;DHT22;2007;48.750;9.278;2024-03-08T07:10:09;14.10;53.90
3986;DHT22;2007;48.750;9.278;2024-03-08T07:12:38;14.10;53.80
3986;DHT22;2007;48.750;9.278;2024-03-08T07:15:07;14.10;53.90
3986;DHT22;2007;48.750;9.278;2024-03-08T07:17:40;14.10;53.80
3986;DHT22;2007;48.750;9.278;2024-03-08T07:20:11;14.10;53.90
3986;DHT22;2007;48.750;9.278;2024-03-08T07:22:40;14.10;53.90
3986;DHT22;2007;48.750;9.278;2024-03-08T07:25:14;14.10;53.80
3986;DHT22;2007;48.750;9.278;2024-03-08T07:27:49;14.10;53.80
3986;DHT22;2007;48.750;9.278;2024-03-08T07:30:18;14.10;53.90
3986;DHT22;2007;48.750;9.278;2024-03-08T07:33:00;14.10;53.90
3986;DHT22;2007;48.750;9.278;2024-03-08T07:35:29;14.00;53.80
3986;DHT22;2007;48.750;9.278;2024-03-08T07:37:57;14.00;53.80
3986;DHT22;2007;48.750;9.278;2024-03-08T07:40:28;14.00;53.80
3986;DHT22;2007;48.750;9.278;2024-03-08T07:42:56;14.10;53.90
3986;DHT22;2007;48.750;9.278;2024-03-08T07:45:25;14.00;53.80
3986;DHT22;2007;48.750;9.278;2024-03-08T07:47:53;14.00;53.80
3986;DHT22;2007;48.750;9.278;2024-03-08T07:50:22;14.00;53.80
3986;DHT22;2007;48.750;9.278;2024-03-08T07:52:50;14.00;53.80
3986;DHT22;2007;48.750;9.278;2024-03-08T07:55:18;14.10;53.90
3986;DHT22;2007;48.750;9.278;2024-03-08T07:57:48;14.00;53.80
3986;DHT22;2007;48.750;9.278;2024-03-08T08:00:16;14.00;53.80
3986;DHT22;2007;48.750;9.278;2024-03-08T08:02:45;14.00;53.80
3986;DHT22;2007;48.750;9.278;2024-03-08T08:05:16;14.00;53.80
3986;DHT22;2007;48.750;9.278;2024-03-08T08:07:45;14.00;53.90
3986;DHT22;2007;48.750;9.278;2024-03-08T08:10:18;14.00;53.80
3986;DHT22;2007;48.750;9.278;2024-03-08T08:12:50;14.00;54.40
3986;DHT22;2007;48.750;9.278;2024-03-08T08:15:18;14.00;53.80
3986;DHT22;2007;48.750;9.278;2024-03-08T08:17:46;14.00;53.90
3986;DHT22;2007;48.750;9.278;2024-03-08T08:20:15;14.00;53.80
3986;DHT22;2007;48.750;9.278;2024-03-08T08:22:45;14.00;53.80
3986;DHT22;2007;48.750;9.278;2024-03-08T08:25:15;14.00;53.80
3986;DHT22;2007;48.750;9.278;2024-03-08T08:27:47;14.00;53.80
3986;DHT22;2007;48.750;9.278;2024-03-08T08:30:16;14.00;53.80
3986;DHT22;2007;48.750;9.278;2024-03-08T08:32:44;14.00;53.90
3986;DHT22;2007;48.750;9.278;2024-03-08T08:35:14;14.00;53.80
3986;DHT22;2007;48.750;9.278;2024-03-08T08:37:42;14.00;53.80
3986;DHT22;2007;48.750;9.278;2024-03-08T08:40:11;14.00;53.80
3986;DHT22;2007;48.750;9.278;2024-03-08T08:42:44;14.00;53.80
3986;DHT22;2007;48.750;9.278;2024-03-08T08:45:17;14.00;53.80
3986;DHT22;2007;48.750;9.278;2024-03-08T08:47:51;14.00;53.80
3986;DHT22;2007;48.750;9.278;2024-03-08T08:50:19;14.00;53.80
3986;DHT22;2007;48.750;9.278;2024-03-08T08:52:50;14.00;53.80
3986;DHT22;2007;48.750;9.278;2024-03-08T08:55:19;14.00;53.90
3986;DHT22;2007;48.750;9.278;2024-03-08T08:57:52;14.00;53.80
3986;DHT22;2007;48.750;9.278;2024-03-08T09:00:21;14.00;53.80
3986;DHT22;2007;48.750;9.278;2024-03-08T09:02:54;14.00;54.50
3986;DHT22;2007;48.750;9.278;2024-03-08T09:05:25;14.00;53.80
3986;DHT22;2007;48.750;9.278;2024-03-08T09:07:53;14.00;53.90
3986;DHT22;2007;48.750;9.278;2024-03-08T09:10:21;14.00;53.90
3986;DHT22;2007;48.750;9.278;2024-03-08T09:12:55;14.00;53.90
3986;DHT22;2007;48.750;9.278;2024-03-08T09:15:25;14.00;53.80
3986;DHT22;2007;48.750;9.278;2024-03-08T09:17:55;14.00;53.80
3986;DHT22;2007;48.750;9.278;2024-03-08T09:20:23;14.00;53.90
3986;DHT22;2007;48.750;9.278;2024-03-08T09:22:51;14.00;53.90
3986;DHT22;2007;48.750;9.278;2024-03-08T09:25:20;14.00;53.90
3986;DHT22;2007;48.750;9.278;2024-03-08T09:27:49;14.00;53.90
3986;DHT22;2007;48.750;9.278;2024-03-08T09:30:17;14.00;53.90
3986;DHT22;2007;48.750;9.278;2024-03-08T09:32:48;14.00;53.80
3986;DHT22;2007;48.750;9.278;2024-03-08T09:35:18;14.00;53.90
3986;DHT22;2007;48.750;9.278;2024-03-08T09:37:46;14.00;53.90
3986;DHT22;2007;48.750;9.278;2024-03-08T09:40:18;14.00;53.90
3986;DHT22;2007;48.750;9.278;2024-03-08T09:42:48;13.90;53.80
3986;DHT22;2007;48.750;9.278;2024-03-08T09:45:17;14.00;53.90
3986;DHT22;2007;48.750;9.278;2024-03-08T09:47:45;14.00;53.90
3986;DHT22;2007;48.750;9.278;2024-03-08T09:50:14;14.00;53.90
3986;DHT22;2007;48.750;9.278;2024-03-08T09:52:47;14.00;53.90
3986;DHT22;2007;48.750;9.278;2024-03-08T09:55:16;13.90;53.80
3986;DHT22;2007;48.750;9.278;2024-03-08T09:57:49;14.00;53.90
3986;DHT22;2007;48.750;9.278;2024-03-08T10:00:32;14.00;53.90
3986;DHT22;2007;48.750;9.278;2024-03-08T10:03:01;13.90;53.80
3986;DHT22;2007;48.750;9.278;2024-03-08T10:05:31;13.90;53.80
3986;DHT22;2007;48.750;9.278;2024-03-08T10:08:00;13.90;53.80
3986;DHT22;2007;48.750;9.278;2024-03-08T10:10:28;13.90;53.80
3986;DHT22;2007;48.750;9.278;2024-03-08T10:12:56;14.00;53.90
3986;DHT22;2007;48.750;9.278;2024-03-08T10:15:27;13.90;53.80
3986;DHT22;2007;48.750;9.278;2024-03-08T10:17:55;13.90;53.80
3986;DHT22;2007;48.750;9.278;2024-03-08T10:20:24;13.90;54.40
3986;DHT22;2007;48.750;9.278;2024-03-08T10:22:54;13.90;53.80
3986;DHT22;2007;48.750;9.278;2024-03-08T10:25:35;13.90;53.80
3986;DHT22;2007;48.750;9.278;2024-03-08T10:28:04;13.90;53.80
3986;DHT22;2007;48.750;9.278;2024-03-08T10:30:33;13.90;53.80
3986;DHT22;2007;48.750;9.278;2024-03-08T10:33:01;13.90;53.80
3986;DHT22;2007;48.750;9.278;2024-03-08T10:35:33;13.90;53.80
3986;DHT22;2007;48.750;9.278;2024-03-08T10:38:05;13.90;53.80
3986;DHT22;2007;48.750;9.278;2024-03-08T10:40:35;13.90;53.80
3986;DHT22;2007;48.750;9.278;2024-03-08T10:43:11;13.90;53.80
3986;DHT22;2007;48.750;9.278;2024-03-08T10:45:43;13.90;53.80
3986;DHT22;2007;48.750;9.278;2024-03-08T10:48:26;13.90;53.80
3986;DHT22;2007;48.750;9.278;2024-03-08T10:51:03;13.90;53.80
3986;DHT22;2007;48.750;9.278;2024-03-08T10:53:34;13.90;53.80
3986;DHT22;2007;48.750;9.278;2024-03-08T10:56:04;13.90;53.80
3986;DHT22;2007;48.750;9.278;2024-03-08T10:58:34;13.90;54.50
3986;DHT22;2007;48.750;9.278;2024-03-08T11:01:03;13.90;53.80
3986;DHT22;2007;48.750;9.278;2024-03-08T11:03:45;13.90;53.90
3986;DHT22;2007;48.750;9.278;2024-03-08T11:06:17;13.90;53.80
3986;DHT22;2007;48.750;9.278;2024-03-08T11:08:50;13.90;53.90
3986;DHT22;2007;48.750;9.278;2024-03-08T11:11:25;13.90;53.80
3986;DHT22;2007;48.750;9.278;2024-03-08T11:14:01;13.90;53.90
3986;DHT22;2007;48.750;9.278;2024-03-08T11:16:38;13.90;53.90
3986;DHT22;2007;48.750;9.278;2024-03-08T11:19:24;13.90;53.80
3986;DHT22;2007;48.750;9.278;2024-03-08T11:22:00;13.90;53.90
3986;DHT22;2007;48.750;9.278;2024-03-08T11:24:36;13.90;53.80
3986;DHT22;2007;48.750;9.278;2024-03-08T11:27:07;13.90;53.80
3986;DHT22;2007;48.750;9.278;2024-03-08T11:29:37;13.90;53.90
3986;DHT22;2007;48.750;9.278;2024-03-08T11:32:11;13.90;53.90
3986;DHT22;2007;48.750;9.278;2024-03-08T11:34:40;13.90;53.90
3986;DHT22;2007;48.750;9.278;2024-03-08T11:37:13;13.90;53.90
3986;DHT22;2007;48.750;9.278;2024-03-08T11:39:48;13.90;53.90
3986;DHT22;2007;48.750;9.278;2024-03-08T11:42:17;13.90;53.90
3986;DHT22;2007;48.750;9.278;2024-03-08T11:44:45;13.90;53.90
3986;DHT22;2007;48.750;9.278;2024-03-08T11:47:14;13.90;53.90
3986;DHT22;2007;48.750;9.278;2024-03-08T11:49:43;13.90;53.90
3986;DHT22;2007;48.750;9.278;2024-03-08T11:52:13;13.90;53.90
3986;DHT22;2007;48.750;9.278;2024-03-08T11:54:41;13.90;53.90
3986;DHT22;2007;48.750;9.278;2024-03-08T11:57:12;13.90;53.90
3986;DHT22;2007;48.750;9.278;2024-03-08T11:59:40;13.90;53.90
3986;DHT22;2007;48.750;9.278;2024-03-08T12:02:09;13.90;53.90
3986;DHT22;2007;48.750;9.278;2024-03-08T12:04:38;13.90;53.90
3986;DHT22;2007;48.750;9.278;2024-03-08T12:07:09;13.90;53.90
3986;DHT22;2007;48.750;9.278;2024-03-08T12:09:40;13.90;53.90
3986;DHT22;2007;48.750;9.278;2024-03-08T12:12:14;13.90;54.00
3986;DHT22;2007;48.750;9.278;2024-03-08T12:14:43;13.90;53.90
3986;DHT22;2007;48.750;9.278;2024-03-08T12:17:12;13.90;53.90
3986;DHT22;2007;48.750;9.278;2024-03-08T12:19:46;13.90;53.90
3986;DHT22;2007;48.750;9.278;2024-03-08T12:22:15;13.90;54.00
3986;DHT22;2007;48.750;9.278;2024-03-08T12:24:43;13.90;54.00
3986;DHT22;2007;48.750;9.278;2024-03-08T12:27:19;13.90;54.00
3986;DHT22;2007;48.750;9.278;2024-03-08T12:29:48;13.90;54.00
3986;DHT22;2007;48.750;9.278;2024-03-08T12:32:18;13.90;54.00
3986;DHT22;2007;48.750;9.278;2024-03-08T12:34:52;13.90;54.00
3986;DHT22;2007;48.750;9.278;2024-03-08T12:37:20;13.90;54.00
3986;DHT22;2007;48.750;9.278;2024-03-08T12:39:50;13.90;54.00
3986;DHT22;2007;48.750;9.278;2024-03-08T12:42:19;13.90;54.00
3986;DHT22;2007;48.750;9.278;2024-03-08T12:44:48;13.90;54.00
3986;DHT22;2007;48.750;9.278;2024-03-08T12:47:16;13.90;54.00
3986;DHT22;2007;48.750;9.278;2024-03-08T12:49:45;13.90;54.60
3986;DHT22;2007;48.750;9.278;2024-03-08T12:52:14;13.90;54.00
3986;DHT22;2007;48.750;9.278;2024-03-08T12:54:45;13.90;54.00
3986;DHT22;2007;48.750;9.278;2024-03-08T12:57:14;13.90;54.00
3986;DHT22;2007;48.750;9.278;2024-03-08T12:59:44;13.90;54.00
3986;DHT22;2007;48.750;9.278;2024-03-08T13:02:12;13.90;54.00
3986;DHT22;2007;48.750;9.278;2024-03-08T13:04:40;13.90;54.00
3986;DHT22;2007;48.750;9.278;2024-03-08T13:07:09;13.90;54.00
3986;DHT22;2007;48.750;9.278;2024-03-08T13:09:36;13.90;54.00
3986;DHT22;2007;48.750;9.278;2024-03-08T13:12:06;13.90;54.00
3986;DHT22;2007;48.750;9.278;2024-03-08T13:14:35;13.90;54.00
3986;DHT22;2007;48.750;9.278;2024-03-08T13:17:05;13.90;54.00
3986;DHT22;2007;48.750;9.278;2024-03-08T13:19:37;13.90;54.00
3986;DHT22;2007;48.750;9.278;2024-03-08T13:22:06;13.90;54.00
3986;DHT22;2007;48.750;9.278;2024-03-08T13:24:39;13.90;54.00
3986;DHT22;2007;48.750;9.278;2024-03-08T13:27:08;13.90;54.00
3986;DHT22;2007;48.750;9.278;2024-03-08T13:29:46;13.90;54.10
3986;DHT22;2007;48.750;9.278;2024-03-08T13:32:17;13.90;54.00
3986;DHT22;2007;48.750;9.278;2024-03-08T13:34:47;13.90;54.00
3986;DHT22;2007;48.750;9.278;2024-03-08T13:37:17;13.90;54.00
3986;DHT22;2007;48.750;9.278;2024-03-08T13:39:46;13.90;54.00
3986;DHT22;2007;48.750;9.278;2024-03-08T13:42:15;13.90;54.00
3986;DHT22;2007;48.750;9.278;2024-03-08T13:44:44;13.90;54.00
3986;DHT22;2007;48.750;9.278;2024-03-08T13:47:13;13.90;54.10
3986;DHT22;2007;48.750;9.278;2024-03-08T13:49:42;13.90;54.00
3986;DHT22;2007;48.750;9.278;2024-03-08T13:52:10;13.90;54.10
3986;DHT22;2007;48.750;9.278;2024-03-08T13:54:39;13.90;54.00
3986;DHT22;2007;48.750;9.278;2024-03-08T13:57:08;13.90;54.00
3986;DHT22;2007;48.750;9.278;2024-03-08T13:59:36;13.90;54.00
3986;DHT22;2007;48.750;9.278;2024-03-08T14:02:05;13.90;54.10
3986;DHT22;2007;48.750;9.278;2024-03-08T14:04:33;13.90;54.00
3986;DHT22;2007;48.750;9.278;2024-03-08T14:07:03;13.90;54.10
3986;DHT22;2007;48.750;9.278;2024-03-08T14:09:31;13.90;54.10
3986;DHT22;2007;48.750;9.278;2024-03-08T14:11:59;13.90;54.10
3986;DHT22;2007;48.750;9.278;2024-03-08T14:14:27;13.90;54.00
3986;DHT22;2007;48.750;9.278;2024-03-08T14:16:55;13.90;54.10
3986;DHT22;2007;48.750;9.278;2024-03-08T14:19:25;13.90;54.10
3986;DHT22;2007;48.750;9.278;2024-03-08T14:21:53;13.90;54.10
3986;DHT22;2007;48.750;9.278;2024-03-08T14:24:23;13.90;54.00
3986;DHT22;2007;48.750;9.278;2024-03-08T14:26:51;13.90;54.10
3986;DHT22;2007;48.750;9.278;2024-03-08T14:29:19;13.90;54.00
3986;DHT22;2007;48.750;9.278;2024-03-08T14:31:47;13.90;54.10
3986;DHT22;2007;48.750;9.278;2024-03-08T14:34:15;13.90;54.10
3986;DHT22;2007;48.750;9.278;2024-03-08T14:36:43;13.90;54.10
3986;DHT22;2007;48.750;9.278;2024-03-08T14:39:11;13.90;54.10
3986;DHT22;2007;48.750;9.278;2024-03-08T14:41:41;13.90;54.10
3986;DHT22;2007;48.750;9.278;2024-03-08T14:44:10;13.90;54.10
3986;DHT22;2007;48.750;9.278;2024-03-08T14:46:38;13.90;54.10
3986;DHT22;2007;48.750;9.278;2024-03-08T14:49:06;13.90;54.10
3986;DHT22;2007;48.750;9.278;2024-03-08T14:51:34;13.90;54.10
3986;DHT22;2007;48.750;9.278;2024-03-08T14:54:02;13.90;54.10
3986;DHT22;2007;48.750;9.278;2024-03-08T14:56:33;13.90;54.10
3986;DHT22;2007;48.750;9.278;2024-03-08T14:59:03;13.90;54.10
3986;DHT22;2007;48.750;9.278;2024-03-08T15:01:31;13.90;54.00
3986;DHT22;2007;48.750;9.278;2024-03-08T15:04:02;13.90;54.10
3986;DHT22;2007;48.750;9.278;2024-03-08T15:06:35;13.90;54.10
3986;DHT22;2007;48.750;9.278;2024-03-08T15:09:04;13.90;54.10
3986;DHT22;2007;48.750;9.278;2024-03-08T15:11:38;13.90;54.00
3986;DHT22;2007;48.750;9.278;2024-03-08T15:14:07;13.90;54.10
3986;DHT22;2007;48.750;9.278;2024-03-08T15:16:38;13.90;54.10
3986;DHT22;2007;48.750;9.278;2024-03-08T15:19:07;13.90;54.10
3986;DHT22;2007;48.750;9.278;2024-03-08T15:21:35;13.90;54.10
3986;DHT22;2007;48.750;9.278;2024-03-08T15:24:03;13.90;54.00
3986;DHT22;2007;48.750;9.278;2024-03-08T15:26:36;13.90;54.10
3986;DHT22;2007;48.750;9.278;2024-03-08T15:29:05;13.90;54.10
3986;DHT22;2007;48.750;9.278;2024-03-08T15:31:34;13.90;54.10
3986;DHT22;2007;48.750;9.278;2024-03-08T15:34:04;13.90;54.10
3986;DHT22;2007;48.750;9.278;2024-03-08T15:36:33;13.90;54.10
3986;DHT22;2007;48.750;9.278;2024-03-08T15:39:02;13.90;54.10
3986;DHT22;2007;48.750;9.278;2024-03-08T15:41:36;13.90;54.10
3986;DHT22;2007;48.750;9.278;2024-03-08T15:44:05;13.90;54.10
3986;DHT22;2007;48.750;9.278;2024-03-08T15:46:35;13.90;54.10
3986;DHT22;2007;48.750;9.278;2024-03-08T15:49:06;13.90;54.10
3986;DHT22;2007;48.750;9.278;2024-03-08T15:51:35;14.00;54.10
3986;DHT22;2007;48.750;9.278;2024-03-08T15:54:05;14.00;54.20
3986;DHT22;2007;48.750;9.278;2024-03-08T15:56:34;14.00;54.10
3986;DHT22;2007;48.750;9.278;2024-03-08T15:59:02;13.90;54.10
3986;DHT22;2007;48.750;9.278;2024-03-08T16:01:34;14.00;54.10
3986;DHT22;2007;48.750;9.278;2024-03-08T16:04:03;14.00;54.10
3986;DHT22;2007;48.750;9.278;2024-03-08T16:06:33;14.00;54.20
3986;DHT22;2007;48.750;9.278;2024-03-08T16:09:02;14.00;54.20
3986;DHT22;2007;48.750;9.278;2024-03-08T16:11:31;14.00;54.20
3986;DHT22;2007;48.750;9.278;2024-03-08T16:14:00;14.00;54.10
3986;DHT22;2007;48.750;9.278;2024-03-08T16:16:30;14.00;54.20